Blue River Airport
CYCP : now visible

Airfield :











YOU CAN JOIN US ON...

 
LOGIN :

Register | Disclaimer

   EN    FR    IT 

 









Legend :    VFR   Marginal VFR   IFR   Intensive IFR   Very Intensive IFR
Visi :
Ceiling :
>= 8 km
>= 3000ft
5 to 8 km
1000 to 3000 ft
1500m to 5 km
500 to 1000 ft
800 to 1500m
200 to 500 ft
< 800m
< 200 ft
Symbols :   Thunderstorms  Fog  Heavy snow  Heavy precipitations  Wind > 20 kt






- Airport Elevation : 2240 ft


CYCP - Blue River

CURRENT METAR :
  • 291700Z VRB04KT 15SM FEW120 BKN230 15/06 A3007 RMK AC3CI3 SLP194 DENSITY ALT 2600FT

EXPIRED METARs :
  • 291600Z VRB03KT 15SM FEW120 SCT220 12/06 A3011 RMK AC1CI3 SLP206
  • 291500Z VRB02KT 15SM FEW120 FEW220 10/05 A3012 RMK AC1CI2 SLP211

TAF N/A
CZVR FIR / North America



MET'MAP, your aeronautical weather chart ! - Copyright ORBIFLY December 2007 - Disclaimer

ORBIFLY MET'MAP TEAM :

Programming & Development : Alexandra Zaïnal
Concept & original design : Baudouin d'Aumeries
Assistance for programming : Marc-Olivier Méhu
Technical & hardware support : Manuel Goepfert

Contact : metmap@orbifly.com




SOURCES & CREDITS :

   NOAA       Earth
Advisory